Time;durP1;ratioP1;P1;durP2;ratioP2;P2;SDS_P1;SDS_P2;PMS_P1;PMS_P2;Temp;Humidity;BMP_temperature;BMP_pressure;BME280_temperature;BME280_humidity;BME280_pressure;Samples;Min_cycle;Max_cycle;Signal;HPM_P1;HPM_P2
2021/01/31 00:00:48;;;;;;;3.70;3.40;;;3.60;99.90;;;;;;4985236;28;20278;-77
2021/01/31 00:03:18;;;;;;;3.77;3.47;;;3.50;99.90;;;;;;4996027;28;20724;-80
2021/01/31 00:05:45;;;;;;;3.60;3.30;;;3.60;99.90;;;;;;4998996;28;20202;-77
2021/01/31 00:08:14;;;;;;;3.50;3.20;;;3.60;99.90;;;;;;4997141;28;20226;-76
2021/01/31 00:10:44;;;;;;;3.57;3.27;;;3.60;99.90;;;;;;4998493;28;20213;-77
2021/01/31 00:13:12;;;;;;;2.70;2.50;;;3.60;99.50;;;;;;4999407;28;20253;-79
2021/01/31 00:15:42;;;;;;;2.83;2.47;;;3.60;99.50;;;;;;5000940;28;20211;-77
2021/01/31 00:18:10;;;;;;;3.10;2.80;;;3.60;99.90;;;;;;5000869;28;20232;-77
2021/01/31 00:20:38;;;;;;;2.63;2.40;;;3.50;99.40;;;;;;4999683;28;20210;-76
2021/01/31 00:23:06;;;;;;;3.10;2.30;;;3.50;99.80;;;;;;4997408;28;20273;-76
2021/01/31 00:25:33;;;;;;;2.63;2.43;;;3.50;99.50;;;;;;4998805;28;20196;-76
2021/01/31 00:27:59;;;;;;;2.70;2.50;;;3.40;99.00;;;;;;5000540;28;20234;-80
2021/01/31 00:30:30;;;;;;;2.40;2.20;;;3.40;99.20;;;;;;5000710;28;20211;-79
2021/01/31 00:32:57;;;;;;;2.30;2.10;;;3.30;99.40;;;;;;5004975;28;20622;-76
2021/01/31 00:35:27;;;;;;;2.60;2.40;;;3.30;99.10;;;;;;4994188;28;20195;-81
2021/01/31 00:37:53;;;;;;;2.03;1.93;;;3.20;99.30;;;;;;4997425;28;20231;-76
2021/01/31 00:40:19;;;;;;;2.47;2.27;;;3.20;99.50;;;;;;5000112;28;20199;-80
2021/01/31 00:42:46;;;;;;;2.03;1.90;;;3.20;99.00;;;;;;5005104;28;20994;-78
2021/01/31 00:45:15;;;;;;;2.33;2.10;;;3.20;99.20;;;;;;4998329;28;20519;-80
2021/01/31 00:47:42;;;;;;;2.70;2.50;;;3.10;99.40;;;;;;4999986;28;20224;-78
2021/01/31 00:50:13;;;;;;;3.70;2.30;;;3.10;99.50;;;;;;5004465;28;20623;-76
2021/01/31 00:52:41;;;;;;;3.17;2.97;;;3.10;99.80;;;;;;5000474;28;20474;-76
2021/01/31 00:55:08;;;;;;;2.53;2.33;;;3.10;99.80;;;;;;4995225;28;20543;-77
2021/01/31 00:57:34;;;;;;;2.80;2.60;;;3.10;99.80;;;;;;4991573;28;20757;-78
2021/01/31 01:00:01;;;;;;;3.03;2.57;;;3.10;99.80;;;;;;4999990;28;20230;-81
2021/01/31 01:02:27;;;;;;;3.20;2.90;;;3.00;99.80;;;;;;5002172;28;20227;-78
2021/01/31 01:04:53;;;;;;;4.07;3.03;;;3.00;99.80;;;;;;5003775;28;20207;-77
2021/01/31 01:07:20;;;;;;;4.23;3.63;;;2.90;99.90;;;;;;5003563;28;20646;-78
2021/01/31 01:09:47;;;;;;;3.20;2.90;;;2.90;99.90;;;;;;5003562;28;20382;-78
2021/01/31 01:12:14;;;;;;;3.37;3.07;;;2.90;99.90;;;;;;5006541;28;20224;-77
2021/01/31 01:14:41;;;;;;;3.27;2.97;;;2.90;99.90;;;;;;4999274;28;20241;-76
2021/01/31 01:17:07;;;;;;;3.63;3.00;;;2.90;99.90;;;;;;4999625;28;20277;-77
2021/01/31 01:19:33;;;;;;;3.90;3.47;;;2.90;99.90;;;;;;5004970;28;20566;-78
2021/01/31 01:21:59;;;;;;;4.13;3.63;;;2.90;99.90;;;;;;5003068;28;20207;-81
2021/01/31 01:24:27;;;;;;;3.77;3.40;;;2.80;99.90;;;;;;5003980;28;20248;-79
2021/01/31 01:26:53;;;;;;;4.40;4.00;;;2.80;99.90;;;;;;5001277;28;20659;-76
2021/01/31 01:29:20;;;;;;;4.30;3.90;;;2.80;99.90;;;;;;5004961;28;20639;-80
2021/01/31 01:31:47;;;;;;;5.10;4.30;;;2.70;99.90;;;;;;5001448;28;20648;-76
2021/01/31 01:34:14;;;;;;;5.17;4.67;;;2.70;99.90;;;;;;5003809;28;20205;-76
2021/01/31 01:36:40;;;;;;;4.93;4.43;;;2.70;99.90;;;;;;4999855;28;20254;-80
2021/01/31 01:39:06;;;;;;;5.20;4.70;;;2.70;99.90;;;;;;5003953;28;20301;-78
2021/01/31 01:41:40;;;;;;;5.23;4.73;;;2.70;99.90;;;;;;4995003;28;20659;-76
2021/01/31 01:44:06;;;;;;;5.07;4.57;;;2.70;99.90;;;;;;5004418;28;20278;-77
2021/01/31 01:46:37;;;;;;;5.10;4.70;;;2.60;99.90;;;;;;5003315;28;20192;-76
2021/01/31 01:49:09;;;;;;;5.47;4.97;;;2.50;99.90;;;;;;5004979;28;20720;-76
2021/01/31 01:51:39;;;;;;;6.03;5.53;;;2.50;99.90;;;;;;4998139;28;20196;-79
2021/01/31 01:54:09;;;;;;;6.63;6.00;;;2.40;99.70;;;;;;4999117;28;20222;-77
2021/01/31 01:56:39;;;;;;;6.63;6.03;;;2.40;99.90;;;;;;4997512;28;20215;-76
2021/01/31 01:59:08;;;;;;;7.33;6.57;;;2.40;99.90;;;;;;4999734;28;20228;-77
2021/01/31 02:01:35;;;;;;;6.80;5.77;;;2.30;99.90;;;;;;5001120;28;20643;-76
2021/01/31 02:04:02;;;;;;;7.17;6.47;;;2.20;99.90;;;;;;5001512;28;20231;-78
2021/01/31 02:06:30;;;;;;;7.53;6.83;;;2.20;99.90;;;;;;4998572;28;20554;-76
2021/01/31 02:08:59;;;;;;;7.17;6.47;;;2.20;99.90;;;;;;5000172;28;20237;-76
2021/01/31 02:11:27;;;;;;;7.80;7.10;;;2.20;99.90;;;;;;5002396;28;20199;-77
2021/01/31 02:13:57;;;;;;;7.97;7.27;;;2.20;99.90;;;;;;5000003;28;20224;-77
2021/01/31 02:16:28;;;;;;;8.00;7.20;;;2.20;99.90;;;;;;5003986;28;20203;-78
2021/01/31 02:19:04;;;;;;;8.13;7.33;;;2.20;99.90;;;;;;5003167;28;20704;-76
2021/01/31 02:22:02;;;;;;;8.67;7.77;;;2.20;99.90;;;;;;4993698;28;20526;-78
2021/01/31 02:24:56;;;;;;;8.43;7.63;;;2.20;99.90;;;;;;5001021;28;20221;-76
2021/01/31 02:27:50;;;;;;;8.60;7.80;;;2.20;99.60;;;;;;5000642;28;20242;-83
2021/01/31 02:30:40;;;;;;;9.30;8.17;;;2.20;99.70;;;;;;5003842;28;20229;-78
2021/01/31 02:33:27;;;;;;;8.73;7.83;;;2.10;99.60;;;;;;4973168;28;20242;-83
2021/01/31 02:36:01;;;;;;;9.27;8.33;;;2.10;99.60;;;;;;5001061;28;20206;-83
2021/01/31 02:38:31;;;;;;;8.50;7.70;;;2.10;99.60;;;;;;4996140;28;20240;-77
2021/01/31 02:41:03;;;;;;;8.50;7.70;;;2.10;99.60;;;;;;4991978;28;20210;-77
2021/01/31 02:43:36;;;;;;;9.37;8.47;;;2.00;99.60;;;;;;4999813;28;20227;-78
2021/01/31 02:46:09;;;;;;;8.30;7.40;;;2.00;99.60;;;;;;4996167;28;20207;-80
2021/01/31 02:48:42;;;;;;;8.47;7.57;;;2.10;99.60;;;;;;4997061;28;20231;-76
2021/01/31 02:51:14;;;;;;;8.40;7.60;;;2.10;99.60;;;;;;5001538;28;20207;-77
2021/01/31 02:53:45;;;;;;;8.70;7.80;;;2.10;99.60;;;;;;4999798;28;20227;-76
2021/01/31 02:56:19;;;;;;;9.70;8.70;;;2.10;99.60;;;;;;5002124;28;20204;-77
2021/01/31 02:58:51;;;;;;;8.53;7.73;;;2.10;99.30;;;;;;5002262;28;20239;-77
2021/01/31 03:01:23;;;;;;;8.00;7.20;;;2.00;99.50;;;;;;4995340;28;20218;-76
2021/01/31 03:03:57;;;;;;;8.30;7.50;;;2.00;99.30;;;;;;4998604;28;20229;-77
2021/01/31 03:06:28;;;;;;;8.70;7.80;;;2.00;99.00;;;;;;5000395;28;20195;-79
2021/01/31 03:09:00;;;;;;;9.53;8.37;;;1.90;99.10;;;;;;5000363;28;20237;-84
2021/01/31 03:11:34;;;;;;;8.37;7.57;;;1.80;99.40;;;;;;5004934;28;20592;-78
2021/01/31 03:14:05;;;;;;;8.33;7.33;;;1.80;99.60;;;;;;5003912;28;20223;-78
2021/01/31 03:16:36;;;;;;;9.27;7.57;;;1.80;99.30;;;;;;5000154;28;20201;-75
2021/01/31 03:19:10;;;;;;;8.50;7.70;;;1.80;99.20;;;;;;5004630;28;20276;-76
2021/01/31 03:21:39;;;;;;;8.83;7.93;;;1.70;99.50;;;;;;4999769;28;20195;-77
2021/01/31 03:24:12;;;;;;;8.70;7.80;;;1.80;99.60;;;;;;4996345;28;20226;-77
2021/01/31 03:26:42;;;;;;;9.70;8.07;;;1.80;99.60;;;;;;4996509;28;20676;-76
2021/01/31 03:29:09;;;;;;;8.37;7.57;;;1.80;99.60;;;;;;4996321;28;20222;-78
2021/01/31 03:31:44;;;;;;;8.87;7.97;;;1.90;99.60;;;;;;4997044;28;20646;-75
2021/01/31 03:34:16;;;;;;;8.10;7.30;;;1.90;99.60;;;;;;4993020;28;20679;-83
2021/01/31 03:36:47;;;;;;;7.57;6.77;;;2.00;99.60;;;;;;4997489;28;20674;-76
2021/01/31 03:39:15;;;;;;;8.27;7.37;;;2.00;99.30;;;;;;4998726;28;20227;-77
2021/01/31 03:41:42;;;;;;;7.40;6.70;;;1.90;99.60;;;;;;4995520;28;20666;-75
2021/01/31 03:44:09;;;;;;;7.80;7.00;;;1.90;99.00;;;;;;5000154;28;20227;-76
2021/01/31 03:46:39;;;;;;;7.50;6.70;;;2.00;99.00;;;;;;5002519;28;20194;-80
2021/01/31 03:49:09;;;;;;;7.03;6.33;;;1.90;99.00;;;;;;4998790;28;20227;-78
2021/01/31 03:51:38;;;;;;;7.77;6.97;;;1.90;98.50;;;;;;5004794;28;20206;-75
2021/01/31 03:54:05;;;;;;;7.63;6.87;;;1.80;98.50;;;;;;5000838;28;20227;-75
2021/01/31 03:56:37;;;;;;;7.80;7.00;;;1.80;98.60;;;;;;5000273;28;20572;-77
2021/01/31 03:59:06;;;;;;;8.17;6.97;;;1.80;99.00;;;;;;5003131;28;20300;-75
2021/01/31 04:01:37;;;;;;;8.13;7.33;;;1.70;98.90;;;;;;4999675;28;20504;-75
2021/01/31 04:04:11;;;;;;;8.50;7.60;;;1.70;99.00;;;;;;5002703;28;20234;-77
2021/01/31 04:06:39;;;;;;;8.50;7.60;;;1.70;99.20;;;;;;4996613;28;20201;-76
2021/01/31 04:09:09;;;;;;;8.23;7.40;;;1.80;99.20;;;;;;4996255;28;20772;-79
2021/01/31 04:11:37;;;;;;;8.83;7.57;;;1.70;99.40;;;;;;4997108;28;20198;-75
2021/01/31 04:14:10;;;;;;;9.17;7.90;;;1.70;99.50;;;;;;5000017;28;20234;-81
2021/01/31 04:16:42;;;;;;;7.87;7.07;;;1.70;99.50;;;;;;4992624;28;20578;-77
2021/01/31 04:19:09;;;;;;;9.27;7.77;;;1.70;99.50;;;;;;5001426;28;20238;-77
2021/01/31 04:21:35;;;;;;;8.50;7.20;;;1.60;99.50;;;;;;5004020;28;20211;-76
2021/01/31 04:24:03;;;;;;;8.47;7.63;;;1.60;99.90;;;;;;4993832;28;20225;-78
2021/01/31 04:26:29;;;;;;;9.63;7.50;;;1.60;99.30;;;;;;4997827;28;20195;-75
2021/01/31 04:28:55;;;;;;;8.00;7.20;;;1.50;99.50;;;;;;4998078;28;20272;-75
2021/01/31 04:31:22;;;;;;;9.53;8.27;;;1.50;99.50;;;;;;4997690;28;20199;-79
2021/01/31 04:33:48;;;;;;;8.73;7.70;;;1.40;99.50;;;;;;4998893;28;20700;-76
2021/01/31 04:36:14;;;;;;;8.43;7.63;;;1.40;99.80;;;;;;5005763;28;20194;-81
2021/01/31 04:38:41;;;;;;;8.00;7.20;;;1.40;99.50;;;;;;5001909;28;20286;-75
2021/01/31 04:41:09;;;;;;;8.33;7.17;;;1.40;99.50;;;;;;5005991;28;20232;-76
2021/01/31 04:43:35;;;;;;;9.27;8.20;;;1.40;99.50;;;;;;5004834;28;20679;-79
2021/01/31 04:46:02;;;;;;;10.97;9.20;;;1.30;99.90;;;;;;5005730;28;20201;-75
2021/01/31 04:48:38;;;;;;;9.63;8.30;;;1.30;99.90;;;;;;5001021;28;20222;-76
2021/01/31 04:51:14;;;;;;;9.10;8.10;;;1.40;99.90;;;;;;5004269;28;20426;-75
2021/01/31 04:53:51;;;;;;;10.17;8.50;;;1.40;99.90;;;;;;5003847;28;20237;-77
2021/01/31 04:56:33;;;;;;;9.80;8.80;;;1.40;99.80;;;;;;5002604;28;20608;-77
2021/01/31 04:59:11;;;;;;;9.83;8.70;;;1.40;99.80;;;;;;4999710;28;20229;-75
2021/01/31 05:01:37;;;;;;;10.83;8.97;;;1.40;99.90;;;;;;5002014;28;20605;-77
2021/01/31 05:04:06;;;;;;;9.80;8.80;;;1.40;99.90;;;;;;5008112;28;20221;-75
2021/01/31 05:06:38;;;;;;;10.27;8.50;;;1.30;99.70;;;;;;5000413;28;20209;-78
2021/01/31 05:09:05;;;;;;;9.83;8.53;;;1.30;99.50;;;;;;5003276;28;20229;-75
2021/01/31 05:11:39;;;;;;;11.13;9.60;;;1.30;99.50;;;;;;5002556;28;20559;-75
2021/01/31 05:14:12;;;;;;;9.83;8.67;;;1.30;99.50;;;;;;4996764;28;20272;-80
2021/01/31 05:16:39;;;;;;;11.17;8.80;;;1.20;99.50;;;;;;5001680;28;20206;-78
2021/01/31 05:19:10;;;;;;;9.30;8.23;;;1.20;99.40;;;;;;4997963;28;20264;-76
2021/01/31 05:21:37;;;;;;;10.53;8.60;;;1.20;99.40;;;;;;4999937;28;20209;-78
2021/01/31 05:24:07;;;;;;;10.57;9.07;;;1.10;99.40;;;;;;5007619;28;20215;-76
2021/01/31 05:26:38;;;;;;;10.77;8.73;;;1.00;99.40;;;;;;5005965;28;20562;-77
2021/01/31 05:29:11;;;;;;;10.10;8.30;;;1.10;99.40;;;;;;5003651;28;20230;-77
2021/01/31 05:31:38;;;;;;;9.80;7.93;;;1.10;99.40;;;;;;5000859;28;20202;-76
2021/01/31 05:34:05;;;;;;;9.93;8.40;;;1.10;99.10;;;;;;5003889;28;20226;-76
2021/01/31 05:36:33;;;;;;;8.97;7.73;;;1.10;98.80;;;;;;5000077;28;20209;-76
2021/01/31 05:39:00;;;;;;;9.37;7.60;;;1.10;98.10;;;;;;5002980;28;20458;-77
2021/01/31 05:41:43;;;;;;;10.87;8.83;;;1.10;97.80;;;;;;5005897;28;20209;-77
2021/01/31 05:44:27;;;;;;;9.17;8.13;;;1.00;98.20;;;;;;5004732;28;20217;-77
2021/01/31 05:46:55;;;;;;;11.67;8.90;;;1.00;98.40;;;;;;5007156;28;20543;-76
2021/01/31 05:49:34;;;;;;;10.43;8.43;;;1.00;98.20;;;;;;5003623;28;20210;-77
2021/01/31 05:52:01;;;;;;;10.77;8.63;;;1.00;98.10;;;;;;5004527;28;20194;-76
2021/01/31 05:54:29;;;;;;;9.90;8.00;;;1.00;98.20;;;;;;5001075;28;20229;-76
2021/01/31 05:56:56;;;;;;;12.67;8.70;;;1.00;98.00;;;;;;5003201;28;20209;-76
2021/01/31 05:59:23;;;;;;;10.50;8.90;;;0.90;98.10;;;;;;5002619;28;20234;-78
2021/01/31 06:01:55;;;;;;;10.47;8.67;;;1.00;98.20;;;;;;4998186;28;20218;-76
2021/01/31 06:04:24;;;;;;;12.23;8.17;;;1.00;98.10;;;;;;4996252;28;20624;-76
2021/01/31 06:06:53;;;;;;;9.33;7.93;;;1.00;97.90;;;;;;5002361;28;20284;-76
2021/01/31 06:09:38;;;;;;;10.40;8.40;;;1.00;97.40;;;;;;4999421;28;20266;-78
2021/01/31 06:12:09;;;;;;;10.73;8.10;;;1.00;96.90;;;;;;4998613;28;20199;-76
2021/01/31 06:14:37;;;;;;;10.33;8.07;;;0.90;96.80;;;;;;5000387;28;20198;-76
2021/01/31 06:17:07;;;;;;;10.33;8.40;;;1.00;96.70;;;;;;4998534;28;20196;-75
2021/01/31 06:19:37;;;;;;;10.23;8.20;;;1.00;96.50;;;;;;5002215;28;20254;-81
2021/01/31 06:22:05;;;;;;;10.47;8.33;;;0.90;96.60;;;;;;5001448;28;20194;-79
2021/01/31 06:24:43;;;;;;;9.77;7.60;;;0.90;96.60;;;;;;5000914;28;20659;-79
2021/01/31 06:27:14;;;;;;;9.80;7.83;;;0.90;96.50;;;;;;5006591;28;20694;-80
2021/01/31 06:29:47;;;;;;;12.03;8.03;;;0.80;96.60;;;;;;4997502;28;20207;-76
2021/01/31 06:32:18;;;;;;;10.63;8.30;;;0.90;96.00;;;;;;5002503;28;20590;-79
2021/01/31 06:34:47;;;;;;;10.83;8.33;;;0.80;96.70;;;;;;4997940;28;20712;-76
2021/01/31 06:37:32;;;;;;;9.67;7.60;;;0.90;96.80;;;;;;5000163;28;20814;-79
2021/01/31 06:40:09;;;;;;;10.20;7.63;;;0.90;96.60;;;;;;5002803;28;20221;-76
2021/01/31 06:42:46;;;;;;;10.13;7.43;;;1.00;96.40;;;;;;5000883;28;20220;-78
2021/01/31 06:45:21;;;;;;;9.87;7.87;;;1.00;95.80;;;;;;5006277;28;20192;-77
2021/01/31 06:48:24;;;;;;;11.53;8.50;;;0.90;96.00;;;;;;4999800;28;20710;-76
2021/01/31 06:51:11;;;;;;;9.67;7.90;;;0.80;96.10;;;;;;4995595;28;20202;-78
2021/01/31 06:53:54;;;;;;;10.17;7.67;;;0.90;96.40;;;;;;4999758;28;20277;-79
2021/01/31 06:57:02;;;;;;;10.93;8.37;;;0.90;96.10;;;;;;4998901;28;20200;-78
2021/01/31 07:00:16;;;;;;;9.27;6.97;;;0.90;96.10;;;;;;4965534;28;20239;-81
2021/01/31 07:03:08;;;;;;;9.37;7.53;;;0.90;95.90;;;;;;5000112;28;20240;-79
2021/01/31 07:05:52;;;;;;;10.73;7.90;;;0.90;96.30;;;;;;4997892;28;20196;-76
2021/01/31 07:09:00;;;;;;;8.67;7.43;;;0.90;96.30;;;;;;5004206;28;20226;-77
2021/01/31 07:11:36;;;;;;;10.83;8.33;;;0.90;96.70;;;;;;5002856;28;20206;-77
2021/01/31 07:14:34;;;;;;;9.47;7.77;;;0.90;96.50;;;;;;5001579;28;20220;-84
2021/01/31 07:17:09;;;;;;;9.80;7.47;;;1.00;96.00;;;;;;4991945;28;20196;-77
2021/01/31 07:19:40;;;;;;;11.40;7.40;;;1.00;95.70;;;;;;4999679;28;20268;-78
2021/01/31 07:22:12;;;;;;;9.03;7.23;;;0.90;95.70;;;;;;4998563;28;20289;-77
2021/01/31 07:24:47;;;;;;;10.67;7.73;;;1.00;95.50;;;;;;4997008;28;20637;-76
2021/01/31 07:27:24;;;;;;;8.27;7.00;;;1.00;95.50;;;;;;4998007;28;20229;-84
2021/01/31 07:30:05;;;;;;;10.43;7.97;;;1.10;95.30;;;;;;4998037;28;20236;-78
2021/01/31 07:32:54;;;;;;;9.03;7.50;;;1.10;94.70;;;;;;4993534;28;20223;-80
2021/01/31 07:35:25;;;;;;;9.07;7.67;;;1.00;95.10;;;;;;5001168;28;20205;-80
2021/01/31 07:37:58;;;;;;;9.57;7.70;;;1.00;95.30;;;;;;5000343;28;20230;-80
2021/01/31 07:40:25;;;;;;;9.27;7.47;;;1.00;95.10;;;;;;5000775;28;20198;-79
2021/01/31 07:42:55;;;;;;;9.90;8.37;;;1.10;95.40;;;;;;5000939;28;20241;-77
2021/01/31 07:45:25;;;;;;;10.07;7.63;;;1.20;95.20;;;;;;4996846;28;20208;-75
2021/01/31 07:48:30;;;;;;;10.60;7.57;;;1.30;95.10;;;;;;4996913;28;20233;-77
2021/01/31 07:50:57;;;;;;;10.53;7.57;;;1.40;94.70;;;;;;5001887;28;20787;-77
2021/01/31 07:53:29;;;;;;;10.30;7.63;;;1.40;94.30;;;;;;4996434;28;20301;-79
2021/01/31 07:55:56;;;;;;;9.03;7.40;;;1.50;94.30;;;;;;4994155;28;20655;-75
2021/01/31 07:58:40;;;;;;;9.23;7.70;;;1.40;94.00;;;;;;5001255;28;20247;-80
2021/01/31 08:01:34;;;;;;;9.87;7.33;;;1.50;93.70;;;;;;5000643;28;20318;-78
2021/01/31 08:04:22;;;;;;;9.87;7.40;;;1.50;93.80;;;;;;5000456;28;20234;-78
2021/01/31 08:06:50;;;;;;;9.10;7.50;;;1.50;93.60;;;;;;4999329;28;20681;-75
2021/01/31 08:09:53;;;;;;;9.17;7.50;;;1.40;93.80;;;;;;5001704;28;20249;-78
2021/01/31 08:12:19;;;;;;;9.63;7.73;;;1.40;93.60;;;;;;4995755;28;20225;-77
2021/01/31 08:15:09;;;;;;;9.83;7.90;;;1.50;93.40;;;;;;4996268;28;20207;-82
2021/01/31 08:17:45;;;;;;;11.60;7.40;;;1.40;93.20;;;;;;4991174;28;20663;-78
2021/01/31 08:20:48;;;;;;;9.90;7.60;;;1.50;92.90;;;;;;4999240;28;20208;-80
2021/01/31 08:23:51;;;;;;;9.67;7.77;;;1.50;93.20;;;;;;4998686;28;20301;-77
2021/01/31 08:26:46;;;;;;;10.87;8.00;;;1.60;92.80;;;;;;4998281;28;20614;-79
2021/01/31 08:29:31;;;;;;;11.47;7.93;;;1.60;93.10;;;;;;4993191;28;20310;-76
2021/01/31 08:32:12;;;;;;;10.30;7.80;;;1.60;93.20;;;;;;4995740;28;20721;-79
2021/01/31 08:35:15;;;;;;;21.33;14.67;;;1.60;93.50;;;;;;4997227;28;20211;-77
2021/01/31 08:37:42;;;;;;;54.97;30.43;;;1.80;94.00;;;;;;4993420;28;20226;-77
2021/01/31 08:40:18;;;;;;;11.13;9.07;;;3.00;98.40;;;;;;4995560;28;20226;-80
2021/01/31 08:42:51;;;;;;;17.63;12.33;;;3.00;93.10;;;;;;4994526;28;20238;-81
2021/01/31 08:45:18;;;;;;;20.20;14.03;;;3.30;91.30;;;;;;4998042;28;20204;-78
2021/01/31 08:47:45;;;;;;;19.47;11.97;;;3.40;92.60;;;;;;4992826;28;20231;-83
2021/01/31 08:50:15;;;;;;;11.70;8.30;;;3.70;88.20;;;;;;4996975;28;20199;-81
2021/01/31 08:52:44;;;;;;;10.07;8.40;;;3.50;90.00;;;;;;5005463;28;20682;-79
2021/01/31 08:55:11;;;;;;;11.13;8.33;;;3.30;89.40;;;;;;5005561;28;20206;-79
2021/01/31 08:57:37;;;;;;;10.37;8.30;;;3.10;87.80;;;;;;4996350;28;20618;-83
2021/01/31 09:00:08;;;;;;;11.00;9.07;;;3.60;88.10;;;;;;4991374;28;20911;-80
2021/01/31 09:02:35;;;;;;;11.90;8.97;;;3.30;88.70;;;;;;4998482;28;20233;-78
2021/01/31 09:05:13;;;;;;;14.17;8.60;;;3.20;90.60;;;;;;4997471;28;20202;-82
2021/01/31 09:07:42;;;;;;;9.37;7.93;;;3.40;87.40;;;;;;5001068;28;20322;-84
2021/01/31 09:10:14;;;;;;;11.67;8.70;;;3.30;86.70;;;;;;5002837;28;20643;-78
2021/01/31 09:12:41;;;;;;;11.47;8.00;;;3.30;85.40;;;;;;4997131;28;20234;-79
2021/01/31 09:15:14;;;;;;;13.00;9.43;;;3.00;87.70;;;;;;5000387;28;20575;-82
2021/01/31 09:17:41;;;;;;;12.10;8.13;;;3.10;89.90;;;;;;5000210;28;20731;-79
2021/01/31 09:20:21;;;;;;;10.87;8.50;;;3.30;90.20;;;;;;4999774;28;20292;-81
2021/01/31 09:22:49;;;;;;;11.83;9.00;;;3.80;84.80;;;;;;4996320;28;20743;-78
2021/01/31 09:25:19;;;;;;;10.83;8.77;;;4.10;82.30;;;;;;5002989;28;20195;-83
2021/01/31 09:27:58;;;;;;;10.30;8.50;;;3.80;81.80;;;;;;4996193;28;20554;-79
2021/01/31 09:30:28;;;;;;;10.80;8.67;;;3.40;84.20;;;;;;5000319;28;20250;-83
2021/01/31 09:32:58;;;;;;;11.20;8.87;;;3.00;86.10;;;;;;4999668;28;20235;-86
2021/01/31 09:35:26;;;;;;;12.57;9.30;;;3.20;89.80;;;;;;5001401;28;20655;-80
2021/01/31 09:37:54;;;;;;;11.73;8.90;;;3.10;88.10;;;;;;4995130;28;21012;-78
2021/01/31 09:40:21;;;;;;;10.67;9.03;;;3.00;87.70;;;;;;4997006;28;20925;-79
2021/01/31 09:42:48;;;;;;;10.97;8.90;;;3.10;89.90;;;;;;5001905;28;20725;-76
2021/01/31 09:45:29;;;;;;;11.63;8.47;;;3.10;87.80;;;;;;5002554;28;20754;-78
2021/01/31 09:47:56;;;;;;;12.30;9.50;;;3.00;87.80;;;;;;5004783;28;20230;-79
2021/01/31 09:50:23;;;;;;;11.47;9.03;;;3.30;87.90;;;;;;4998715;28;20195;-82
2021/01/31 09:52:51;;;;;;;12.10;9.53;;;3.20;87.80;;;;;;5010301;28;20227;-84
2021/01/31 09:55:30;;;;;;;13.07;8.87;;;3.00;87.70;;;;;;5002701;28;20207;-78
2021/01/31 09:57:57;;;;;;;12.80;9.87;;;2.90;87.70;;;;;;5003520;28;20226;-80
2021/01/31 10:00:35;;;;;;;13.90;10.67;;;2.90;87.70;;;;;;5002748;28;20219;-77
2021/01/31 10:03:06;;;;;;;14.20;10.27;;;2.70;89.90;;;;;;5005825;28;20237;-77
2021/01/31 10:05:34;;;;;;;14.60;10.23;;;2.70;90.50;;;;;;5005423;28;20638;-76
2021/01/31 10:08:05;;;;;;;13.93;10.10;;;2.70;90.30;;;;;;5002431;28;20222;-77
2021/01/31 10:11:16;;;;;;;16.43;10.37;;;2.80;88.80;;;;;;5004237;28;20210;-80
2021/01/31 10:13:43;;;;;;;15.67;11.00;;;2.60;89.70;;;;;;4983458;28;20241;-83
2021/01/31 10:16:18;;;;;;;16.00;11.17;;;2.30;90.90;;;;;;5003360;28;20204;-78
2021/01/31 10:18:51;;;;;;;14.17;10.83;;;2.30;91.80;;;;;;5000994;28;20610;-78
2021/01/31 10:21:32;;;;;;;14.00;10.80;;;2.40;91.00;;;;;;4999660;28;21625;-81
2021/01/31 10:24:04;;;;;;;16.63;11.27;;;2.30;91.40;;;;;;5004056;28;20227;-79
2021/01/31 10:26:31;;;;;;;14.40;10.87;;;2.30;91.60;;;;;;4997735;28;20191;-83
2021/01/31 10:28:59;;;;;;;16.87;11.17;;;2.40;91.30;;;;;;5000739;28;20834;-76
2021/01/31 10:31:33;;;;;;;15.77;11.60;;;2.50;91.10;;;;;;5000934;28;20200;-78
2021/01/31 10:34:01;;;;;;;15.63;11.50;;;2.60;91.00;;;;;;4996973;28;20224;-81
2021/01/31 10:36:40;;;;;;;19.73;11.83;;;2.50;91.00;;;;;;4995669;28;20203;-77
2021/01/31 10:39:26;;;;;;;17.57;11.77;;;2.50;91.70;;;;;;4999897;28;20226;-82
2021/01/31 10:41:55;;;;;;;16.20;12.20;;;2.50;91.80;;;;;;5000614;28;20199;-78
2021/01/31 10:44:25;;;;;;;15.80;11.27;;;2.50;91.70;;;;;;4996706;28;20199;-78
2021/01/31 10:46:53;;;;;;;14.77;11.20;;;2.50;91.70;;;;;;4997721;28;20199;-80
2021/01/31 10:49:20;;;;;;;15.67;11.80;;;2.60;91.90;;;;;;4996603;28;20232;-83
2021/01/31 10:51:47;;;;;;;15.43;11.97;;;2.70;91.30;;;;;;4999472;28;20286;-79
2021/01/31 10:54:16;;;;;;;18.03;12.23;;;2.70;91.30;;;;;;4966225;28;20211;-78
2021/01/31 10:56:42;;;;;;;17.90;11.93;;;2.60;90.80;;;;;;4998944;28;20204;-80
2021/01/31 10:59:08;;;;;;;17.73;11.87;;;2.40;91.00;;;;;;5004792;28;20281;-77
2021/01/31 11:01:35;;;;;;;16.70;12.80;;;2.40;91.20;;;;;;4994746;28;20207;-78
2021/01/31 11:04:02;;;;;;;18.00;12.93;;;2.50;91.20;;;;;;4993059;28;20224;-87
2021/01/31 11:06:29;;;;;;;16.87;12.43;;;2.50;90.70;;;;;;4998723;28;20195;-82
2021/01/31 11:08:56;;;;;;;17.37;12.27;;;2.40;91.40;;;;;;4993577;28;20249;-77
2021/01/31 11:11:23;;;;;;;17.43;12.67;;;2.40;91.70;;;;;;5002114;28;20201;-80
2021/01/31 11:13:49;;;;;;;17.27;13.07;;;2.50;91.20;;;;;;4996367;28;20655;-81
2021/01/31 11:16:17;;;;;;;18.43;12.00;;;2.50;91.40;;;;;;4996330;28;20200;-82
2021/01/31 11:18:44;;;;;;;19.30;13.90;;;2.50;91.20;;;;;;4997139;28;20236;-81
2021/01/31 11:21:15;;;;;;;18.30;13.13;;;2.40;91.60;;;;;;5002539;28;20206;-77
2021/01/31 11:23:42;;;;;;;19.40;12.67;;;2.30;92.20;;;;;;4993675;28;20635;-76
2021/01/31 11:26:08;;;;;;;17.30;13.30;;;2.40;92.20;;;;;;5007636;28;20208;-76
2021/01/31 11:28:34;;;;;;;18.70;13.03;;;2.20;92.50;;;;;;5003913;28;20235;-79
2021/01/31 11:31:01;;;;;;;15.90;12.27;;;2.50;92.00;;;;;;4997066;28;20203;-84
2021/01/31 11:33:27;;;;;;;15.30;12.00;;;2.60;91.90;;;;;;5000296;28;20227;-85
2021/01/31 11:35:54;;;;;;;17.53;12.63;;;2.80;91.10;;;;;;4993956;28;20196;-78
2021/01/31 11:38:21;;;;;;;18.10;13.07;;;3.00;90.70;;;;;;4995754;28;20233;-85
2021/01/31 11:40:48;;;;;;;17.53;13.07;;;2.80;90.80;;;;;;5000084;28;20658;-79
2021/01/31 11:43:14;;;;;;;18.67;13.53;;;2.60;91.40;;;;;;4995960;28;20768;-77
2021/01/31 11:45:41;;;;;;;18.27;13.43;;;2.50;91.80;;;;;;5001204;28;20219;-79
2021/01/31 11:48:08;;;;;;;18.37;13.20;;;2.40;91.80;;;;;;4998537;28;20228;-79
2021/01/31 11:50:34;;;;;;;17.90;13.10;;;2.50;91.60;;;;;;4996733;28;20627;-77
2021/01/31 11:53:01;;;;;;;18.30;13.00;;;2.60;91.10;;;;;;5000685;28;20488;-79
2021/01/31 11:55:28;;;;;;;17.73;12.70;;;2.50;91.20;;;;;;4996105;28;20226;-79
2021/01/31 11:57:55;;;;;;;17.60;12.70;;;2.60;91.70;;;;;;4992999;28;20227;-79
2021/01/31 12:00:23;;;;;;;17.17;13.10;;;2.70;91.50;;;;;;4999746;28;20227;-79
2021/01/31 12:02:49;;;;;;;18.50;12.73;;;2.60;91.50;;;;;;4996367;28;20235;-77
2021/01/31 12:05:18;;;;;;;20.33;14.07;;;2.60;91.60;;;;;;4995623;28;20199;-78
2021/01/31 12:07:45;;;;;;;19.53;13.70;;;2.50;91.60;;;;;;4991898;28;20230;-82
2021/01/31 12:10:14;;;;;;;20.00;13.73;;;2.60;91.50;;;;;;4997658;28;20203;-77
2021/01/31 12:12:41;;;;;;;18.70;13.37;;;2.60;91.90;;;;;;4995300;28;20250;-78
2021/01/31 12:15:12;;;;;;;22.07;14.40;;;2.60;92.10;;;;;;4994815;28;20394;-79
2021/01/31 12:17:39;;;;;;;20.30;13.67;;;2.80;91.90;;;;;;4989514;28;20227;-77
2021/01/31 12:20:06;;;;;;;19.37;13.70;;;2.90;91.20;;;;;;4993389;28;20223;-77
2021/01/31 12:22:32;;;;;;;17.93;13.43;;;2.90;91.40;;;;;;4998680;28;20242;-78
2021/01/31 12:25:00;;;;;;;18.30;13.40;;;2.90;91.30;;;;;;4993544;28;20198;-78
2021/01/31 12:27:27;;;;;;;20.43;14.27;;;2.90;91.10;;;;;;4996216;28;20235;-79
2021/01/31 12:29:54;;;;;;;23.23;13.77;;;2.90;91.30;;;;;;4993817;28;20261;-78
2021/01/31 12:32:21;;;;;;;22.23;14.67;;;3.00;91.20;;;;;;4995731;28;20227;-81
2021/01/31 12:34:47;;;;;;;19.07;14.07;;;3.00;90.90;;;;;;4993047;28;20202;-78
2021/01/31 12:37:16;;;;;;;17.43;13.43;;;3.10;91.30;;;;;;4991781;28;20245;-77
2021/01/31 12:39:42;;;;;;;19.13;13.93;;;2.90;91.60;;;;;;4997810;28;20227;-81
2021/01/31 12:42:09;;;;;;;21.77;14.83;;;2.80;92.00;;;;;;4993316;28;20232;-78
2021/01/31 12:44:35;;;;;;;23.23;15.73;;;2.80;92.10;;;;;;4998411;28;20586;-85
2021/01/31 12:47:03;;;;;;;18.27;13.60;;;3.00;92.00;;;;;;4996711;28;20334;-79
2021/01/31 12:49:29;;;;;;;18.57;13.83;;;3.10;91.80;;;;;;4993962;28;20196;-77
2021/01/31 12:51:56;;;;;;;20.47;14.47;;;3.10;91.60;;;;;;4990095;28;20243;-77
2021/01/31 12:54:23;;;;;;;18.80;13.73;;;3.20;91.70;;;;;;4994152;28;20196;-79
2021/01/31 12:56:50;;;;;;;17.50;13.77;;;3.10;92.30;;;;;;4995058;28;20195;-78
2021/01/31 12:59:16;;;;;;;19.57;15.00;;;3.20;91.80;;;;;;4997072;28;20254;-77
2021/01/31 13:01:43;;;;;;;18.93;13.80;;;2.80;92.90;;;;;;4999228;28;20297;-75
2021/01/31 13:04:10;;;;;;;19.17;14.20;;;2.90;92.60;;;;;;5001505;28;20226;-78
2021/01/31 13:06:37;;;;;;;18.77;14.37;;;2.90;92.50;;;;;;5000546;28;20205;-88
2021/01/31 13:09:04;;;;;;;17.73;13.27;;;3.00;92.00;;;;;;4996454;28;20242;-79
2021/01/31 13:11:30;;;;;;;19.67;14.83;;;3.10;92.00;;;;;;5005002;28;20286;-79